sensor_id;sensor_type;location;lat;lon;timestamp;P1;durP1;ratioP1;P2;durP2;ratioP2
52458;SDS011;38372;52.902;6.024;2024-03-22T00:01:55;20.42;;;10.30;;
52458;SDS011;38372;52.902;6.024;2024-03-22T00:04:21;23.70;;;10.15;;
52458;SDS011;38372;52.902;6.024;2024-03-22T00:06:48;21.98;;;11.20;;
52458;SDS011;38372;52.902;6.024;2024-03-22T00:09:17;19.10;;;9.13;;
52458;SDS011;38372;52.902;6.024;2024-03-22T00:11:43;22.98;;;10.10;;
52458;SDS011;38372;52.902;6.024;2024-03-22T00:14:09;23.13;;;10.85;;
52458;SDS011;38372;52.902;6.024;2024-03-22T00:16:42;18.10;;;10.57;;
52458;SDS011;38372;52.902;6.024;2024-03-22T00:19:08;22.23;;;9.38;;
52458;SDS011;38372;52.902;6.024;2024-03-22T00:21:34;25.40;;;10.07;;
52458;SDS011;38372;52.902;6.024;2024-03-22T00:24:00;21.83;;;11.15;;
52458;SDS011;38372;52.902;6.024;2024-03-22T00:26:26;21.13;;;9.95;;
52458;SDS011;38372;52.902;6.024;2024-03-22T00:28:52;21.63;;;8.82;;
52458;SDS011;38372;52.902;6.024;2024-03-22T00:31:18;24.83;;;10.55;;
52458;SDS011;38372;52.902;6.024;2024-03-22T00:33:44;23.30;;;9.98;;
52458;SDS011;38372;52.902;6.024;2024-03-22T00:36:10;22.42;;;9.70;;
52458;SDS011;38372;52.902;6.024;2024-03-22T00:38:36;20.88;;;10.27;;
52458;SDS011;38372;52.902;6.024;2024-03-22T00:41:01;27.60;;;12.18;;
52458;SDS011;38372;52.902;6.024;2024-03-22T00:43:27;24.38;;;9.98;;
52458;SDS011;38372;52.902;6.024;2024-03-22T00:45:53;21.13;;;10.55;;
52458;SDS011;38372;52.902;6.024;2024-03-22T00:48:19;26.38;;;11.32;;
52458;SDS011;38372;52.902;6.024;2024-03-22T00:50:45;17.17;;;9.00;;
52458;SDS011;38372;52.902;6.024;2024-03-22T00:53:10;28.58;;;10.80;;
52458;SDS011;38372;52.902;6.024;2024-03-22T00:55:36;21.48;;;10.35;;
52458;SDS011;38372;52.902;6.024;2024-03-22T00:58:02;23.83;;;10.30;;
52458;SDS011;38372;52.902;6.024;2024-03-22T01:00:28;24.67;;;10.73;;
52458;SDS011;38372;52.902;6.024;2024-03-22T01:02:54;21.65;;;11.10;;
52458;SDS011;38372;52.902;6.024;2024-03-22T01:05:20;23.40;;;11.55;;
52458;SDS011;38372;52.902;6.024;2024-03-22T01:07:45;26.70;;;10.27;;
52458;SDS011;38372;52.902;6.024;2024-03-22T01:10:11;22.55;;;10.43;;
52458;SDS011;38372;52.902;6.024;2024-03-22T01:12:38;23.95;;;9.88;;
52458;SDS011;38372;52.902;6.024;2024-03-22T01:15:17;24.73;;;10.35;;
52458;SDS011;38372;52.902;6.024;2024-03-22T01:17:43;25.35;;;11.65;;
52458;SDS011;38372;52.902;6.024;2024-03-22T01:20:09;21.67;;;10.55;;
52458;SDS011;38372;52.902;6.024;2024-03-22T01:22:35;29.52;;;12.80;;
52458;SDS011;38372;52.902;6.024;2024-03-22T01:25:02;29.75;;;11.98;;
52458;SDS011;38372;52.902;6.024;2024-03-22T01:27:28;26.45;;;11.77;;
52458;SDS011;38372;52.902;6.024;2024-03-22T01:29:54;27.58;;;12.23;;
52458;SDS011;38372;52.902;6.024;2024-03-22T01:32:20;28.02;;;11.77;;
52458;SDS011;38372;52.902;6.024;2024-03-22T01:34:45;25.45;;;11.07;;
52458;SDS011;38372;52.902;6.024;2024-03-22T01:37:11;23.15;;;10.55;;
52458;SDS011;38372;52.902;6.024;2024-03-22T01:39:37;29.75;;;12.43;;
52458;SDS011;38372;52.902;6.024;2024-03-22T01:42:03;29.77;;;11.30;;
52458;SDS011;38372;52.902;6.024;2024-03-22T01:44:29;37.90;;;13.32;;
52458;SDS011;38372;52.902;6.024;2024-03-22T01:46:57;29.70;;;12.50;;
52458;SDS011;38372;52.902;6.024;2024-03-22T01:49:25;30.75;;;13.13;;
52458;SDS011;38372;52.902;6.024;2024-03-22T01:51:51;32.38;;;12.32;;
52458;SDS011;38372;52.902;6.024;2024-03-22T01:54:17;33.35;;;13.23;;
52458;SDS011;38372;52.902;6.024;2024-03-22T01:56:45;32.28;;;13.23;;
52458;SDS011;38372;52.902;6.024;2024-03-22T01:59:11;30.85;;;12.85;;
52458;SDS011;38372;52.902;6.024;2024-03-22T02:01:37;29.50;;;12.90;;
52458;SDS011;38372;52.902;6.024;2024-03-22T02:04:04;29.85;;;12.75;;
52458;SDS011;38372;52.902;6.024;2024-03-22T02:06:31;33.08;;;12.43;;
52458;SDS011;38372;52.902;6.024;2024-03-22T02:08:57;36.00;;;14.55;;
52458;SDS011;38372;52.902;6.024;2024-03-22T02:11:24;29.77;;;12.85;;
52458;SDS011;38372;52.902;6.024;2024-03-22T02:13:51;31.77;;;12.35;;
52458;SDS011;38372;52.902;6.024;2024-03-22T02:16:23;32.47;;;13.77;;
52458;SDS011;38372;52.902;6.024;2024-03-22T02:18:49;38.05;;;14.55;;
52458;SDS011;38372;52.902;6.024;2024-03-22T02:21:15;32.17;;;14.30;;
52458;SDS011;38372;52.902;6.024;2024-03-22T02:23:41;30.73;;;12.45;;
52458;SDS011;38372;52.902;6.024;2024-03-22T02:26:07;40.80;;;13.73;;
52458;SDS011;38372;52.902;6.024;2024-03-22T02:28:33;33.22;;;14.25;;
52458;SDS011;38372;52.902;6.024;2024-03-22T02:31:00;37.38;;;15.43;;
52458;SDS011;38372;52.902;6.024;2024-03-22T02:33:27;27.83;;;12.35;;
52458;SDS011;38372;52.902;6.024;2024-03-22T02:35:53;33.90;;;14.02;;
52458;SDS011;38372;52.902;6.024;2024-03-22T02:38:19;30.58;;;12.43;;
52458;SDS011;38372;52.902;6.024;2024-03-22T02:40:46;30.60;;;12.82;;
52458;SDS011;38372;52.902;6.024;2024-03-22T02:43:13;36.10;;;13.07;;
52458;SDS011;38372;52.902;6.024;2024-03-22T02:45:39;42.15;;;14.55;;
52458;SDS011;38372;52.902;6.024;2024-03-22T02:48:05;32.05;;;14.00;;
52458;SDS011;38372;52.902;6.024;2024-03-22T02:50:35;41.28;;;14.02;;
52458;SDS011;38372;52.902;6.024;2024-03-22T02:53:02;31.00;;;13.48;;
52458;SDS011;38372;52.902;6.024;2024-03-22T02:55:29;30.30;;;12.90;;
52458;SDS011;38372;52.902;6.024;2024-03-22T02:57:58;28.65;;;13.90;;
52458;SDS011;38372;52.902;6.024;2024-03-22T03:00:24;33.13;;;14.37;;
52458;SDS011;38372;52.902;6.024;2024-03-22T03:02:50;35.28;;;13.40;;
52458;SDS011;38372;52.902;6.024;2024-03-22T03:05:16;34.42;;;13.45;;
52458;SDS011;38372;52.902;6.024;2024-03-22T03:07:42;28.17;;;11.05;;
52458;SDS011;38372;52.902;6.024;2024-03-22T03:10:07;33.75;;;12.88;;
52458;SDS011;38372;52.902;6.024;2024-03-22T03:12:33;33.38;;;14.57;;
52458;SDS011;38372;52.902;6.024;2024-03-22T03:15:13;32.20;;;12.80;;
52458;SDS011;38372;52.902;6.024;2024-03-22T03:17:39;35.50;;;13.57;;
52458;SDS011;38372;52.902;6.024;2024-03-22T03:20:05;29.08;;;12.85;;
52458;SDS011;38372;52.902;6.024;2024-03-22T03:22:35;37.28;;;13.77;;
52458;SDS011;38372;52.902;6.024;2024-03-22T03:25:03;33.85;;;13.93;;
52458;SDS011;38372;52.902;6.024;2024-03-22T03:27:29;28.95;;;13.45;;
52458;SDS011;38372;52.902;6.024;2024-03-22T03:29:55;32.38;;;13.13;;
52458;SDS011;38372;52.902;6.024;2024-03-22T03:32:21;33.72;;;13.25;;
52458;SDS011;38372;52.902;6.024;2024-03-22T03:34:47;30.50;;;11.48;;
52458;SDS011;38372;52.902;6.024;2024-03-22T03:37:14;27.73;;;10.75;;
52458;SDS011;38372;52.902;6.024;2024-03-22T03:39:39;29.42;;;10.52;;
52458;SDS011;38372;52.902;6.024;2024-03-22T03:42:05;28.92;;;11.10;;
52458;SDS011;38372;52.902;6.024;2024-03-22T03:44:31;30.67;;;13.45;;
52458;SDS011;38372;52.902;6.024;2024-03-22T03:46:57;22.98;;;10.02;;
52458;SDS011;38372;52.902;6.024;2024-03-22T03:49:24;35.50;;;10.85;;
52458;SDS011;38372;52.902;6.024;2024-03-22T03:51:49;30.58;;;10.18;;
52458;SDS011;38372;52.902;6.024;2024-03-22T03:54:15;21.85;;;9.98;;
52458;SDS011;38372;52.902;6.024;2024-03-22T03:56:41;27.20;;;10.20;;
52458;SDS011;38372;52.902;6.024;2024-03-22T03:59:07;31.58;;;11.80;;
52458;SDS011;38372;52.902;6.024;2024-03-22T04:01:32;28.55;;;11.18;;
52458;SDS011;38372;52.902;6.024;2024-03-22T04:03:58;29.63;;;10.15;;
52458;SDS011;38372;52.902;6.024;2024-03-22T04:06:24;23.77;;;9.85;;
52458;SDS011;38372;52.902;6.024;2024-03-22T04:08:50;28.95;;;10.40;;
52458;SDS011;38372;52.902;6.024;2024-03-22T04:11:15;24.75;;;10.02;;
52458;SDS011;38372;52.902;6.024;2024-03-22T04:13:41;23.90;;;10.18;;
52458;SDS011;38372;52.902;6.024;2024-03-22T04:16:13;26.80;;;10.93;;
52458;SDS011;38372;52.902;6.024;2024-03-22T04:18:39;24.48;;;9.63;;
52458;SDS011;38372;52.902;6.024;2024-03-22T04:21:05;25.33;;;11.13;;
52458;SDS011;38372;52.902;6.024;2024-03-22T04:23:30;29.30;;;10.43;;
52458;SDS011;38372;52.902;6.024;2024-03-22T04:25:59;29.65;;;9.32;;
52458;SDS011;38372;52.902;6.024;2024-03-22T04:28:26;23.33;;;9.80;;
52458;SDS011;38372;52.902;6.024;2024-03-22T04:31:02;18.95;;;8.77;;
52458;SDS011;38372;52.902;6.024;2024-03-22T04:33:30;23.20;;;9.52;;
52458;SDS011;38372;52.902;6.024;2024-03-22T04:35:57;21.65;;;8.57;;
52458;SDS011;38372;52.902;6.024;2024-03-22T04:38:24;21.60;;;8.40;;
52458;SDS011;38372;52.902;6.024;2024-03-22T04:40:51;22.67;;;8.63;;
52458;SDS011;38372;52.902;6.024;2024-03-22T04:43:17;23.58;;;9.07;;
52458;SDS011;38372;52.902;6.024;2024-03-22T04:45:44;24.35;;;9.23;;
52458;SDS011;38372;52.902;6.024;2024-03-22T04:48:18;28.65;;;8.80;;
52458;SDS011;38372;52.902;6.024;2024-03-22T04:50:45;15.38;;;7.32;;
52458;SDS011;38372;52.902;6.024;2024-03-22T04:53:12;22.90;;;9.15;;
52458;SDS011;38372;52.902;6.024;2024-03-22T04:55:38;23.02;;;9.48;;
52458;SDS011;38372;52.902;6.024;2024-03-22T04:58:09;21.30;;;7.45;;
52458;SDS011;38372;52.902;6.024;2024-03-22T05:00:56;17.05;;;7.90;;
52458;SDS011;38372;52.902;6.024;2024-03-22T05:03:23;18.50;;;7.63;;
52458;SDS011;38372;52.902;6.024;2024-03-22T05:05:49;18.10;;;7.03;;
52458;SDS011;38372;52.902;6.024;2024-03-22T05:08:15;18.63;;;7.20;;
52458;SDS011;38372;52.902;6.024;2024-03-22T05:10:42;18.20;;;7.15;;
52458;SDS011;38372;52.902;6.024;2024-03-22T05:13:08;19.48;;;7.25;;
52458;SDS011;38372;52.902;6.024;2024-03-22T05:15:40;16.85;;;6.10;;
52458;SDS011;38372;52.902;6.024;2024-03-22T05:18:12;17.42;;;7.72;;
52458;SDS011;38372;52.902;6.024;2024-03-22T05:20:38;19.30;;;7.90;;
52458;SDS011;38372;52.902;6.024;2024-03-22T05:23:04;23.42;;;7.60;;
52458;SDS011;38372;52.902;6.024;2024-03-22T05:25:29;12.70;;;5.80;;
52458;SDS011;38372;52.902;6.024;2024-03-22T05:27:55;19.80;;;8.13;;
52458;SDS011;38372;52.902;6.024;2024-03-22T05:30:21;17.77;;;7.43;;
52458;SDS011;38372;52.902;6.024;2024-03-22T05:32:46;18.95;;;6.82;;
52458;SDS011;38372;52.902;6.024;2024-03-22T05:35:14;16.20;;;6.40;;
52458;SDS011;38372;52.902;6.024;2024-03-22T05:37:40;16.17;;;7.22;;
52458;SDS011;38372;52.902;6.024;2024-03-22T05:40:06;16.38;;;7.35;;
52458;SDS011;38372;52.902;6.024;2024-03-22T05:42:32;17.13;;;8.18;;
52458;SDS011;38372;52.902;6.024;2024-03-22T05:44:58;23.58;;;7.88;;
52458;SDS011;38372;52.902;6.024;2024-03-22T05:47:23;14.88;;;7.35;;
52458;SDS011;38372;52.902;6.024;2024-03-22T05:49:49;14.18;;;6.72;;
52458;SDS011;38372;52.902;6.024;2024-03-22T05:52:15;18.20;;;7.65;;
52458;SDS011;38372;52.902;6.024;2024-03-22T05:54:41;18.45;;;7.55;;
52458;SDS011;38372;52.902;6.024;2024-03-22T05:57:13;17.38;;;6.80;;
52458;SDS011;38372;52.902;6.024;2024-03-22T05:59:39;14.35;;;6.95;;
52458;SDS011;38372;52.902;6.024;2024-03-22T06:02:05;14.63;;;6.30;;
52458;SDS011;38372;52.902;6.024;2024-03-22T06:04:31;13.30;;;6.43;;
52458;SDS011;38372;52.902;6.024;2024-03-22T06:06:57;18.95;;;7.15;;
52458;SDS011;38372;52.902;6.024;2024-03-22T06:09:25;14.07;;;5.57;;
52458;SDS011;38372;52.902;6.024;2024-03-22T06:12:24;22.55;;;7.93;;
52458;SDS011;38372;52.902;6.024;2024-03-22T06:14:56;17.40;;;6.55;;
52458;SDS011;38372;52.902;6.024;2024-03-22T06:17:22;20.10;;;6.05;;
52458;SDS011;38372;52.902;6.024;2024-03-22T06:19:47;10.63;;;5.28;;
52458;SDS011;38372;52.902;6.024;2024-03-22T06:22:14;22.05;;;5.97;;
52458;SDS011;38372;52.902;6.024;2024-03-22T06:24:39;13.98;;;5.10;;
52458;SDS011;38372;52.902;6.024;2024-03-22T06:27:05;13.40;;;5.22;;
52458;SDS011;38372;52.902;6.024;2024-03-22T06:29:32;15.95;;;6.07;;
52458;SDS011;38372;52.902;6.024;2024-03-22T06:31:58;14.07;;;5.82;;
52458;SDS011;38372;52.902;6.024;2024-03-22T06:34:23;15.02;;;6.00;;
52458;SDS011;38372;52.902;6.024;2024-03-22T06:36:49;14.85;;;5.72;;
52458;SDS011;38372;52.902;6.024;2024-03-22T06:39:16;11.27;;;4.50;;
52458;SDS011;38372;52.902;6.024;2024-03-22T06:41:42;16.00;;;4.57;;
52458;SDS011;38372;52.902;6.024;2024-03-22T06:44:14;12.00;;;5.25;;
52458;SDS011;38372;52.902;6.024;2024-03-22T06:46:40;14.20;;;5.85;;
52458;SDS011;38372;52.902;6.024;2024-03-22T06:49:05;13.30;;;4.35;;
52458;SDS011;38372;52.902;6.024;2024-03-22T06:51:31;10.20;;;4.88;;
52458;SDS011;38372;52.902;6.024;2024-03-22T06:53:57;8.55;;;4.68;;
52458;SDS011;38372;52.902;6.024;2024-03-22T06:56:23;15.70;;;4.22;;
52458;SDS011;38372;52.902;6.024;2024-03-22T07:01:39;11.02;;;4.28;;
52458;SDS011;38372;52.902;6.024;2024-03-22T07:04:05;14.90;;;5.60;;
52458;SDS011;38372;52.902;6.024;2024-03-22T07:06:30;16.70;;;5.57;;
52458;SDS011;38372;52.902;6.024;2024-03-22T07:08:56;13.85;;;5.03;;
52458;SDS011;38372;52.902;6.024;2024-03-22T07:11:22;13.48;;;4.57;;
52458;SDS011;38372;52.902;6.024;2024-03-22T07:13:48;15.20;;;4.47;;
52458;SDS011;38372;52.902;6.024;2024-03-22T07:16:20;11.60;;;4.35;;
52458;SDS011;38372;52.902;6.024;2024-03-22T07:18:46;8.35;;;4.43;;
52458;SDS011;38372;52.902;6.024;2024-03-22T07:21:13;15.70;;;5.80;;
52458;SDS011;38372;52.902;6.024;2024-03-22T07:23:39;15.02;;;4.90;;
52458;SDS011;38372;52.902;6.024;2024-03-22T07:26:05;19.48;;;6.13;;
52458;SDS011;38372;52.902;6.024;2024-03-22T07:28:33;9.63;;;4.32;;
52458;SDS011;38372;52.902;6.024;2024-03-22T07:31:00;13.07;;;5.68;;
52458;SDS011;38372;52.902;6.024;2024-03-22T07:33:26;12.98;;;4.30;;
52458;SDS011;38372;52.902;6.024;2024-03-22T07:35:52;13.88;;;5.65;;
52458;SDS011;38372;52.902;6.024;2024-03-22T07:38:19;8.95;;;4.75;;
52458;SDS011;38372;52.902;6.024;2024-03-22T07:40:45;17.02;;;4.80;;
52458;SDS011;38372;52.902;6.024;2024-03-22T07:43:16;18.33;;;4.82;;
52458;SDS011;38372;52.902;6.024;2024-03-22T07:45:41;21.15;;;5.72;;
52458;SDS011;38372;52.902;6.024;2024-03-22T07:48:07;12.52;;;5.53;;
52458;SDS011;38372;52.902;6.024;2024-03-22T07:50:33;9.18;;;4.32;;
52458;SDS011;38372;52.902;6.024;2024-03-22T07:52:59;9.85;;;4.63;;
52458;SDS011;38372;52.902;6.024;2024-03-22T07:55:25;15.25;;;5.38;;
52458;SDS011;38372;52.902;6.024;2024-03-22T07:57:51;16.63;;;5.57;;
52458;SDS011;38372;52.902;6.024;2024-03-22T08:00:19;12.93;;;5.30;;
52458;SDS011;38372;52.902;6.024;2024-03-22T08:02:45;20.38;;;5.78;;
52458;SDS011;38372;52.902;6.024;2024-03-22T08:05:18;15.95;;;5.35;;
52458;SDS011;38372;52.902;6.024;2024-03-22T08:07:47;14.10;;;4.37;;
52458;SDS011;38372;52.902;6.024;2024-03-22T08:10:13;10.55;;;5.30;;
52458;SDS011;38372;52.902;6.024;2024-03-22T08:12:49;16.23;;;6.28;;
52458;SDS011;38372;52.902;6.024;2024-03-22T08:15:22;12.13;;;5.45;;
52458;SDS011;38372;52.902;6.024;2024-03-22T08:17:52;14.07;;;5.20;;
52458;SDS011;38372;52.902;6.024;2024-03-22T08:20:18;18.80;;;5.30;;
52458;SDS011;38372;52.902;6.024;2024-03-22T08:22:44;13.70;;;6.68;;
52458;SDS011;38372;52.902;6.024;2024-03-22T08:25:10;14.63;;;6.28;;
52458;SDS011;38372;52.902;6.024;2024-03-22T08:27:35;10.98;;;4.28;;
52458;SDS011;38372;52.902;6.024;2024-03-22T08:30:01;14.20;;;5.57;;
52458;SDS011;38372;52.902;6.024;2024-03-22T08:32:31;13.88;;;5.40;;
52458;SDS011;38372;52.902;6.024;2024-03-22T08:35:07;11.93;;;4.22;;
52458;SDS011;38372;52.902;6.024;2024-03-22T08:37:36;13.02;;;4.47;;
52458;SDS011;38372;52.902;6.024;2024-03-22T08:40:10;17.60;;;6.57;;
52458;SDS011;38372;52.902;6.024;2024-03-22T08:42:40;14.60;;;5.60;;
52458;SDS011;38372;52.902;6.024;2024-03-22T08:45:07;15.38;;;5.47;;
52458;SDS011;38372;52.902;6.024;2024-03-22T08:47:33;11.30;;;5.00;;
52458;SDS011;38372;52.902;6.024;2024-03-22T08:49:59;11.18;;;6.38;;
52458;SDS011;38372;52.902;6.024;2024-03-22T08:52:25;16.25;;;5.03;;
52458;SDS011;38372;52.902;6.024;2024-03-22T08:54:52;8.82;;;4.45;;
52458;SDS011;38372;52.902;6.024;2024-03-22T08:57:18;9.55;;;5.53;;
52458;SDS011;38372;52.902;6.024;2024-03-22T08:59:44;8.93;;;4.70;;
52458;SDS011;38372;52.902;6.024;2024-03-22T09:02:10;14.45;;;5.30;;
52458;SDS011;38372;52.902;6.024;2024-03-22T09:04:36;9.75;;;6.15;;
52458;SDS011;38372;52.902;6.024;2024-03-22T09:07:03;14.43;;;4.80;;
52458;SDS011;38372;52.902;6.024;2024-03-22T09:09:29;10.13;;;5.28;;
52458;SDS011;38372;52.902;6.024;2024-03-22T09:11:55;9.25;;;4.57;;
52458;SDS011;38372;52.902;6.024;2024-03-22T09:14:21;13.00;;;6.50;;
52458;SDS011;38372;52.902;6.024;2024-03-22T09:16:53;13.05;;;6.75;;
52458;SDS011;38372;52.902;6.024;2024-03-22T09:19:19;12.38;;;5.93;;
52458;SDS011;38372;52.902;6.024;2024-03-22T09:21:44;16.45;;;6.13;;
52458;SDS011;38372;52.902;6.024;2024-03-22T09:24:10;13.73;;;7.60;;
52458;SDS011;38372;52.902;6.024;2024-03-22T09:26:36;12.35;;;6.07;;
52458;SDS011;38372;52.902;6.024;2024-03-22T09:29:02;11.90;;;4.57;;
52458;SDS011;38372;52.902;6.024;2024-03-22T09:31:29;15.75;;;5.53;;
52458;SDS011;38372;52.902;6.024;2024-03-22T09:33:56;19.30;;;7.78;;
52458;SDS011;38372;52.902;6.024;2024-03-22T09:36:22;17.45;;;5.57;;
52458;SDS011;38372;52.902;6.024;2024-03-22T09:38:47;12.50;;;4.85;;
52458;SDS011;38372;52.902;6.024;2024-03-22T09:41:14;12.07;;;5.75;;
52458;SDS011;38372;52.902;6.024;2024-03-22T09:43:40;10.93;;;5.85;;
52458;SDS011;38372;52.902;6.024;2024-03-22T09:46:10;12.10;;;6.00;;
52458;SDS011;38372;52.902;6.024;2024-03-22T09:48:38;14.90;;;5.60;;
52458;SDS011;38372;52.902;6.024;2024-03-22T09:51:06;12.60;;;5.47;;
52458;SDS011;38372;52.902;6.024;2024-03-22T09:53:33;8.85;;;4.15;;
52458;SDS011;38372;52.902;6.024;2024-03-22T09:56:00;8.00;;;3.88;;
52458;SDS011;38372;52.902;6.024;2024-03-22T09:58:27;9.82;;;4.25;;
52458;SDS011;38372;52.902;6.024;2024-03-22T10:00:53;8.93;;;4.15;;
52458;SDS011;38372;52.902;6.024;2024-03-22T10:03:25;9.82;;;4.80;;
52458;SDS011;38372;52.902;6.024;2024-03-22T10:05:51;8.15;;;4.15;;
52458;SDS011;38372;52.902;6.024;2024-03-22T10:08:17;10.32;;;4.45;;
52458;SDS011;38372;52.902;6.024;2024-03-22T10:10:43;6.80;;;3.05;;
52458;SDS011;38372;52.902;6.024;2024-03-22T10:13:08;6.72;;;2.58;;
52458;SDS011;38372;52.902;6.024;2024-03-22T10:15:34;6.40;;;2.63;;
52458;SDS011;38372;52.902;6.024;2024-03-22T10:18:07;8.00;;;3.03;;
52458;SDS011;38372;52.902;6.024;2024-03-22T10:20:35;6.30;;;2.60;;
52458;SDS011;38372;52.902;6.024;2024-03-22T10:23:01;7.55;;;4.05;;
52458;SDS011;38372;52.902;6.024;2024-03-22T10:25:27;4.93;;;2.63;;
52458;SDS011;38372;52.902;6.024;2024-03-22T10:27:53;5.78;;;2.50;;
52458;SDS011;38372;52.902;6.024;2024-03-22T10:30:20;6.68;;;2.83;;
52458;SDS011;38372;52.902;6.024;2024-03-22T10:32:48;6.72;;;2.85;;
52458;SDS011;38372;52.902;6.024;2024-03-22T10:35:14;5.22;;;1.95;;
52458;SDS011;38372;52.902;6.024;2024-03-22T10:37:42;3.92;;;2.00;;
52458;SDS011;38372;52.902;6.024;2024-03-22T10:40:08;7.47;;;3.22;;
52458;SDS011;38372;52.902;6.024;2024-03-22T10:42:37;4.78;;;2.13;;
52458;SDS011;38372;52.902;6.024;2024-03-22T10:47:31;5.57;;;2.28;;
52458;SDS011;38372;52.902;6.024;2024-03-22T10:50:02;4.97;;;2.55;;
52458;SDS011;38372;52.902;6.024;2024-03-22T10:55:33;6.45;;;2.63;;
52458;SDS011;38372;52.902;6.024;2024-03-22T10:58:02;6.00;;;3.42;;
52458;SDS011;38372;52.902;6.024;2024-03-22T11:00:34;8.52;;;4.35;;
52458;SDS011;38372;52.902;6.024;2024-03-22T11:03:02;13.63;;;5.47;;
52458;SDS011;38372;52.902;6.024;2024-03-22T11:05:28;5.85;;;2.45;;
52458;SDS011;38372;52.902;6.024;2024-03-22T11:08:05;3.88;;;2.15;;
52458;SDS011;38372;52.902;6.024;2024-03-22T11:10:33;7.03;;;3.65;;
52458;SDS011;38372;52.902;6.024;2024-03-22T11:13:05;4.88;;;2.15;;
52458;SDS011;38372;52.902;6.024;2024-03-22T11:15:39;2.38;;;1.48;;
52458;SDS011;38372;52.902;6.024;2024-03-22T11:18:05;3.35;;;1.63;;
52458;SDS011;38372;52.902;6.024;2024-03-22T11:20:30;3.45;;;1.80;;
52458;SDS011;38372;52.902;6.024;2024-03-22T11:22:56;1.55;;;0.98;;
52458;SDS011;38372;52.902;6.024;2024-03-22T11:25:22;3.10;;;1.95;;
52458;SDS011;38372;52.902;6.024;2024-03-22T11:27:48;2.45;;;1.15;;
52458;SDS011;38372;52.902;6.024;2024-03-22T11:30:15;3.13;;;1.75;;
52458;SDS011;38372;52.902;6.024;2024-03-22T11:32:41;3.30;;;1.52;;
52458;SDS011;38372;52.902;6.024;2024-03-22T11:35:10;3.53;;;0.80;;
52458;SDS011;38372;52.902;6.024;2024-03-22T11:37:38;3.65;;;1.73;;
52458;SDS011;38372;52.902;6.024;2024-03-22T11:40:04;5.47;;;1.60;;
52458;SDS011;38372;52.902;6.024;2024-03-22T11:42:34;2.15;;;1.00;;
52458;SDS011;38372;52.902;6.024;2024-03-22T11:45:00;2.33;;;1.20;;
52458;SDS011;38372;52.902;6.024;2024-03-22T11:47:27;1.90;;;0.93;;
52458;SDS011;38372;52.902;6.024;2024-03-22T11:49:53;3.25;;;1.00;;
52458;SDS011;38372;52.902;6.024;2024-03-22T11:52:27;4.28;;;1.42;;
52458;SDS011;38372;52.902;6.024;2024-03-22T11:54:53;3.08;;;1.05;;
52458;SDS011;38372;52.902;6.024;2024-03-22T11:57:22;4.10;;;1.00;;
52458;SDS011;38372;52.902;6.024;2024-03-22T11:59:48;10.48;;;1.05;;
52458;SDS011;38372;52.902;6.024;2024-03-22T12:02:15;3.33;;;1.40;;
52458;SDS011;38372;52.902;6.024;2024-03-22T12:04:47;2.95;;;1.60;;
52458;SDS011;38372;52.902;6.024;2024-03-22T12:07:13;1.60;;;0.98;;
52458;SDS011;38372;52.902;6.024;2024-03-22T12:09:43;2.40;;;0.93;;
52458;SDS011;38372;52.902;6.024;2024-03-22T12:14:36;4.00;;;1.30;;
52458;SDS011;38372;52.902;6.024;2024-03-22T12:17:09;6.18;;;1.67;;
52458;SDS011;38372;52.902;6.024;2024-03-22T12:19:35;3.08;;;1.00;;
52458;SDS011;38372;52.902;6.024;2024-03-22T12:22:01;3.50;;;1.17;;
52458;SDS011;38372;52.902;6.024;2024-03-22T12:24:27;4.38;;;1.60;;
52458;SDS011;38372;52.902;6.024;2024-03-22T12:26:53;2.30;;;1.40;;
52458;SDS011;38372;52.902;6.024;2024-03-22T12:29:21;7.00;;;1.73;;
52458;SDS011;38372;52.902;6.024;2024-03-22T12:31:47;4.90;;;1.52;;
52458;SDS011;38372;52.902;6.024;2024-03-22T12:34:13;5.93;;;1.52;;
52458;SDS011;38372;52.902;6.024;2024-03-22T12:36:39;3.00;;;1.77;;
52458;SDS011;38372;52.902;6.024;2024-03-22T12:39:05;8.88;;;2.00;;
52458;SDS011;38372;52.902;6.024;2024-03-22T12:41:31;3.08;;;1.63;;
52458;SDS011;38372;52.902;6.024;2024-03-22T12:43:58;4.03;;;1.50;;
52458;SDS011;38372;52.902;6.024;2024-03-22T12:46:24;6.70;;;1.35;;
52458;SDS011;38372;52.902;6.024;2024-03-22T12:48:51;4.10;;;2.08;;
52458;SDS011;38372;52.902;6.024;2024-03-22T12:51:16;2.60;;;1.20;;
52458;SDS011;38372;52.902;6.024;2024-03-22T12:53:42;6.03;;;2.05;;
52458;SDS011;38372;52.902;6.024;2024-03-22T12:56:08;10.40;;;2.95;;
52458;SDS011;38372;52.902;6.024;2024-03-22T12:58:34;12.80;;;2.40;;
52458;SDS011;38372;52.902;6.024;2024-03-22T13:01:00;4.57;;;2.50;;
52458;SDS011;38372;52.902;6.024;2024-03-22T13:03:27;8.05;;;3.35;;
52458;SDS011;38372;52.902;6.024;2024-03-22T13:05:53;6.70;;;3.08;;
52458;SDS011;38372;52.902;6.024;2024-03-22T13:08:19;6.25;;;3.20;;
52458;SDS011;38372;52.902;6.024;2024-03-22T13:10:45;5.65;;;3.08;;
52458;SDS011;38372;52.902;6.024;2024-03-22T13:13:13;4.82;;;3.00;;
52458;SDS011;38372;52.902;6.024;2024-03-22T13:15:41;8.02;;;2.53;;
52458;SDS011;38372;52.902;6.024;2024-03-22T13:18:16;8.98;;;2.90;;
52458;SDS011;38372;52.902;6.024;2024-03-22T13:20:42;9.70;;;3.40;;
52458;SDS011;38372;52.902;6.024;2024-03-22T13:23:14;4.63;;;2.50;;
52458;SDS011;38372;52.902;6.024;2024-03-22T13:25:39;11.63;;;2.75;;
52458;SDS011;38372;52.902;6.024;2024-03-22T13:28:05;12.02;;;2.95;;
52458;SDS011;38372;52.902;6.024;2024-03-22T13:30:31;6.38;;;2.00;;
52458;SDS011;38372;52.902;6.024;2024-03-22T13:32:57;9.20;;;2.00;;
52458;SDS011;38372;52.902;6.024;2024-03-22T13:35:24;7.65;;;2.00;;
52458;SDS011;38372;52.902;6.024;2024-03-22T13:37:50;12.55;;;3.05;;
52458;SDS011;38372;52.902;6.024;2024-03-22T13:40:16;11.60;;;2.67;;
52458;SDS011;38372;52.902;6.024;2024-03-22T13:42:42;9.88;;;1.85;;
52458;SDS011;38372;52.902;6.024;2024-03-22T13:45:08;3.83;;;1.33;;
52458;SDS011;38372;52.902;6.024;2024-03-22T13:47:34;5.65;;;1.95;;
52458;SDS011;38372;52.902;6.024;2024-03-22T13:50:02;9.68;;;2.42;;
52458;SDS011;38372;52.902;6.024;2024-03-22T13:52:33;3.47;;;1.58;;
52458;SDS011;38372;52.902;6.024;2024-03-22T13:55:00;12.52;;;2.95;;
52458;SDS011;38372;52.902;6.024;2024-03-22T13:57:27;7.30;;;2.22;;
52458;SDS011;38372;52.902;6.024;2024-03-22T13:59:53;9.07;;;1.80;;
52458;SDS011;38372;52.902;6.024;2024-03-22T14:02:19;12.00;;;2.35;;
52458;SDS011;38372;52.902;6.024;2024-03-22T14:04:45;5.20;;;2.25;;
52458;SDS011;38372;52.902;6.024;2024-03-22T14:07:11;7.20;;;2.78;;
52458;SDS011;38372;52.902;6.024;2024-03-22T14:09:37;10.38;;;2.40;;
52458;SDS011;38372;52.902;6.024;2024-03-22T14:12:03;8.38;;;1.88;;
52458;SDS011;38372;52.902;6.024;2024-03-22T14:14:36;6.47;;;1.70;;
52458;SDS011;38372;52.902;6.024;2024-03-22T14:17:08;6.13;;;1.08;;
52458;SDS011;38372;52.902;6.024;2024-03-22T14:19:40;2.90;;;1.00;;
52458;SDS011;38372;52.902;6.024;2024-03-22T14:22:06;5.22;;;1.63;;
52458;SDS011;38372;52.902;6.024;2024-03-22T14:24:31;1.67;;;1.13;;
52458;SDS011;38372;52.902;6.024;2024-03-22T14:26:57;2.53;;;1.15;;
52458;SDS011;38372;52.902;6.024;2024-03-22T14:29:23;9.23;;;1.85;;
52458;SDS011;38372;52.902;6.024;2024-03-22T14:31:50;6.45;;;1.08;;
52458;SDS011;38372;52.902;6.024;2024-03-22T14:34:15;3.13;;;0.80;;
52458;SDS011;38372;52.902;6.024;2024-03-22T14:36:42;9.30;;;1.30;;
52458;SDS011;38372;52.902;6.024;2024-03-22T14:39:08;3.95;;;2.05;;
52458;SDS011;38372;52.902;6.024;2024-03-22T14:41:35;5.43;;;1.35;;
52458;SDS011;38372;52.902;6.024;2024-03-22T14:44:00;3.00;;;1.08;;
52458;SDS011;38372;52.902;6.024;2024-03-22T14:46:26;3.22;;;0.88;;